Parshall, CO (80468)

8:21 PM MDT on August 30, 2014 (GMT -0600)
Green Mountain Reservoir | Change Station
CLOSE
Current Station
Personal Weather Station
Location: Heeney, CO
Elevation: 7979 ft
Nearby Weather Stations

Elev 7979 ft 39.87 °N, 106.31 °W | Updated 52 seconds ago

Partly Cloudy
Partly Cloudy
54.5 °F
Feels Like 54.5 °F
N
3.8
Wind Variable Wind from South
Gusts 6.0 mph

Today
High -- | Low -- °F
--% Chance of Precip.
Yesterday
High -- | Low -- °F
Precip. -- in
6:30 AM 7:39 PM
Waxing Crescent, 26% visible
Pressure 30.16 in
Visibility 10.0 miles
Clouds Scattered Clouds 12000 ft
Dew Point 44 °F
Humidity 68%
Rainfall 0.05 in
Snow Depth 0 in , 0 in , 0 in
UV 0 out of 12
Pollen 10.50 out of 12
Air Quality Not available.
Flu Activity Not available.
METAR K20V 310217Z AUTO 21003KT 10SM SCT120 15/05 A3016 RMK AO2

More Conditions Fewer Conditions

Pressure 30.16 in
Visibility 10.0 miles
Clouds Scattered Clouds 12000 ft
Dew Point 44 °F
Humidity 68%
Rainfall 0.05 in
Snow Depth 0 in , 0 in , 0 in
UV 0 out of 12
Pollen 10.50 out of 12
Air Quality Not available.
Flu Activity Not available.
METAR K20V 310217Z AUTO 21003KT 10SM SCT120 15/05 A3016 RMK AO2

More Conditions Fewer Conditions

Nowcast | as of 7:01 PM MDT on August 30, 2014

Isolated rain showers and a few thunderstorms will continue moving across the mountains and high Parks of north central Colorado through 730 PM and then begin diminishing. The heaviest showers will be over Summit...Clear Creek and Gilpin counties. The showers will produce brief rain and wind gusts up to 35 mph.

×

10-Day Weather Forecast

Almanac

Astronomy

Aug. 30, 2014 Rise Set
Actual Time 6:30 AM MDT 7:39 PM MDT
Civil Twilight 6:02 AM MDT 8:06 PM MDT
Nautical Twilight 5:29 AM MDT 8:40 PM MDT
Astronomical Twilight 4:54 AM MDT 9:14 PM MDT
Moon 11:20 AM MDT (8/30) 10:15 PM MDT (8/30)
Length of Visible Light 14h 04m
Length of Day
13h 08m
Tomorrow will be 2m 31s shorter.
Waxing Crescent, 26% of the Moon is Illuminated
Today
Waxing Crescent
Sep 2
First Quarter
Sep 8
Full
Sep 15
Last Quarter
Sep 24
New

Today's Extremes

State Highs State Lows

Community

WunderPhotos

Upload Photos

1,748,749 photos uploaded!

Nearby

Snow Depth

Station Depth Elevation
Middle Fork Camp 0 in 9000 ft
Summit Ranch 0 in 9400 ft
Jones Pass 0 in 10400 ft
Berthoud Summit 0 in 11300 ft
Grizzly Peak 0 in 11100 ft

Earthquake Activity

City Distance Mag. Time & Date
No recent earthquake activity has been reported nearby.
Minimum magnitude displayed is 2.5.

Coastal Water Temperatures

Place Temperature
No Stations Reporting

Nearby Weather Stations